Time;durP1;ratioP1;P1;durP2;ratioP2;P2;SDS_P1;SDS_P2;PMS_P1;PMS_P2;Temp;Humidity;BMP_temperature;BMP_pressure;BME280_temperature;BME280_humidity;BME280_pressure;Samples;Min_cycle;Max_cycle;Signal;HPM_P1;HPM_P2
2024/02/11 00:00:10;;;;;;;23.35;13.45;;;;;;;;;;4951561;29;20035;-88
2024/02/11 00:02:56;;;;;;;20.63;14.93;;;;;;;;;;4964792;28;20038;-89
2024/02/11 00:05:43;;;;;;;19.02;13.30;;;;;;;;;;4970995;28;20433;-88
2024/02/11 00:08:34;;;;;;;23.38;13.82;;;;;;;;;;4970878;28;20031;-89
2024/02/11 00:11:21;;;;;;;23.67;14.45;;;;;;;;;;4967821;28;20025;-88
2024/02/11 00:14:07;;;;;;;23.30;15.07;;;;;;;;;;4941652;29;20099;-88
2024/02/11 00:16:54;;;;;;;21.33;13.20;;;;;;;;;;4934030;29;20034;-87
2024/02/11 00:19:40;;;;;;;21.92;14.15;;;;;;;;;;4932462;29;20071;-90
2024/02/11 00:22:25;;;;;;;17.95;13.57;;;;;;;;;;4956551;28;20015;-88
2024/02/11 00:25:11;;;;;;;21.83;13.70;;;;;;;;;;4952420;29;20037;-89
2024/02/11 00:28:00;;;;;;;21.25;15.40;;;;;;;;;;4938890;28;20047;-89
2024/02/11 00:30:48;;;;;;;20.70;13.68;;;;;;;;;;4956943;28;20023;-89
2024/02/11 00:33:33;;;;;;;26.10;14.70;;;;;;;;;;4968672;28;20054;-88
2024/02/11 00:36:19;;;;;;;20.25;14.05;;;;;;;;;;4970932;28;20030;-90
2024/02/11 00:39:05;;;;;;;22.00;13.93;;;;;;;;;;4970933;28;20056;-87
2024/02/11 00:41:51;;;;;;;21.00;14.38;;;;;;;;;;4968954;28;20043;-85
2024/02/11 00:44:37;;;;;;;21.27;15.05;;;;;;;;;;4955457;28;20042;-86
2024/02/11 00:47:22;;;;;;;20.95;13.02;;;;;;;;;;4939385;29;20061;-86
2024/02/11 00:50:11;;;;;;;22.73;13.95;;;;;;;;;;4931273;29;20020;-87
2024/02/11 00:52:57;;;;;;;20.58;14.40;;;;;;;;;;4965404;28;20026;-86
2024/02/11 00:55:42;;;;;;;22.10;14.75;;;;;;;;;;4967688;28;20058;-87
2024/02/11 00:58:27;;;;;;;19.73;13.60;;;;;;;;;;4968723;28;20038;-87
2024/02/11 01:01:13;;;;;;;22.98;14.13;;;;;;;;;;4955465;28;20030;-87
2024/02/11 01:03:58;;;;;;;23.48;14.60;;;;;;;;;;4949456;28;20035;-88
2024/02/11 01:06:43;;;;;;;19.75;13.63;;;;;;;;;;4950063;29;20273;-88
2024/02/11 01:09:28;;;;;;;25.05;14.77;;;;;;;;;;4954622;28;20094;-87
2024/02/11 01:12:14;;;;;;;19.13;12.77;;;;;;;;;;4965201;28;20030;-87
2024/02/11 01:14:59;;;;;;;21.95;15.52;;;;;;;;;;4956637;28;20057;-88
2024/02/11 01:17:44;;;;;;;19.95;11.80;;;;;;;;;;4950683;29;20027;-86
2024/02/11 01:20:29;;;;;;;21.17;13.15;;;;;;;;;;4955180;28;20542;-88
2024/02/11 01:23:17;;;;;;;18.90;12.43;;;;;;;;;;4968590;28;20085;-88
2024/02/11 01:26:02;;;;;;;23.15;14.70;;;;;;;;;;4968631;28;20037;-87
2024/02/11 01:28:47;;;;;;;21.52;13.70;;;;;;;;;;4938813;28;20028;-88
2024/02/11 01:31:34;;;;;;;22.60;14.60;;;;;;;;;;4964531;28;20019;-89
2024/02/11 01:34:20;;;;;;;19.67;13.95;;;;;;;;;;4968765;28;20046;-91
2024/02/11 01:37:07;;;;;;;20.20;13.07;;;;;;;;;;4963659;28;20034;-88
2024/02/11 01:39:52;;;;;;;19.17;13.05;;;;;;;;;;4951301;28;20028;-88
2024/02/11 01:42:39;;;;;;;23.80;14.32;;;;;;;;;;4968782;28;20026;-88
2024/02/11 01:45:25;;;;;;;21.35;12.27;;;;;;;;;;4953837;28;20043;-88
2024/02/11 01:48:10;;;;;;;19.67;12.02;;;;;;;;;;4943989;29;20063;-89
2024/02/11 01:50:56;;;;;;;19.65;13.15;;;;;;;;;;4951681;28;20037;-89
2024/02/11 01:53:41;;;;;;;19.73;12.90;;;;;;;;;;4967769;28;20030;-89
2024/02/11 01:56:26;;;;;;;20.38;12.73;;;;;;;;;;4969549;28;20027;-88
2024/02/11 01:59:11;;;;;;;19.02;12.40;;;;;;;;;;4969134;28;20023;-90
2024/02/11 02:01:58;;;;;;;19.50;12.93;;;;;;;;;;4966972;28;20030;-88
2024/02/11 02:04:43;;;;;;;25.35;12.98;;;;;;;;;;4956362;28;20066;-87
2024/02/11 02:07:30;;;;;;;21.08;13.38;;;;;;;;;;4961495;28;20029;-88
2024/02/11 02:10:15;;;;;;;18.85;13.02;;;;;;;;;;4967946;28;20031;-89
2024/02/11 02:13:00;;;;;;;17.38;12.73;;;;;;;;;;4967111;28;20041;-89
2024/02/11 02:15:47;;;;;;;20.75;13.73;;;;;;;;;;4962606;28;20058;-88
2024/02/11 02:18:34;;;;;;;22.48;13.13;;;;;;;;;;4969061;28;20031;-88
2024/02/11 02:21:23;;;;;;;21.65;14.30;;;;;;;;;;4965960;28;20078;-88
2024/02/11 02:24:09;;;;;;;;;;;;;;;;;;4941026;28;20482;-88
2024/02/11 02:26:54;;;;;;;22.75;13.68;;;;;;;;;;4944030;28;20079;-89
2024/02/11 02:29:39;;;;;;;18.17;11.77;;;;;;;;;;4964792;28;20030;-89
2024/02/11 02:32:25;;;;;;;20.65;13.73;;;;;;;;;;4967438;28;20051;-89
2024/02/11 02:35:11;;;;;;;20.67;14.35;;;;;;;;;;4968471;28;20071;-90
2024/02/11 02:37:57;;;;;;;21.42;13.15;;;;;;;;;;4967766;28;20579;-90
2024/02/11 02:40:42;;;;;;;24.85;14.65;;;;;;;;;;4968103;28;20110;-92
2024/02/11 02:43:28;;;;;;;25.58;14.45;;;;;;;;;;4960250;28;20022;-90
2024/02/11 02:46:13;;;;;;;20.35;12.95;;;;;;;;;;4953530;28;20105;-91
2024/02/11 02:48:58;;;;;;;18.63;12.57;;;;;;;;;;4968235;28;20018;-89
2024/02/11 02:51:44;;;;;;;19.00;11.52;;;;;;;;;;4968292;28;20027;-89
2024/02/11 02:54:29;;;;;;;20.95;13.30;;;;;;;;;;4968545;28;20030;-90
2024/02/11 02:57:14;;;;;;;20.65;12.80;;;;;;;;;;4967936;28;20035;-89
2024/02/11 03:00:00;;;;;;;17.13;12.00;;;;;;;;;;4943854;28;20110;-90
2024/02/11 03:02:46;;;;;;;8.63;5.30;;;;;;;;;;4965350;28;20034;-87
2024/02/11 03:05:34;;;;;;;9.23;5.25;;;;;;;;;;4969181;28;20019;-89
2024/02/11 03:08:19;;;;;;;5.45;3.70;;;;;;;;;;4955516;28;20401;-88
2024/02/11 03:11:04;;;;;;;3.10;2.33;;;;;;;;;;4953245;28;20025;-90
2024/02/11 03:13:50;;;;;;;4.15;1.70;;;;;;;;;;4966085;28;20027;-89
2024/02/11 03:16:35;;;;;;;1.50;1.40;;;;;;;;;;4941286;29;20023;-89
2024/02/11 03:19:20;;;;;;;0.98;0.88;;;;;;;;;;4964195;28;20109;-88
2024/02/11 03:22:05;;;;;;;2.20;1.17;;;;;;;;;;4976350;28;20030;-89
2024/02/11 03:24:51;;;;;;;2.15;0.90;;;;;;;;;;4969066;28;20027;-88
2024/02/11 03:27:37;;;;;;;3.00;1.20;;;;;;;;;;4971325;28;20026;-88
2024/02/11 03:30:22;;;;;;;0.80;0.63;;;;;;;;;;4967385;28;20351;-89
2024/02/11 03:33:07;;;;;;;0.60;0.60;;;;;;;;;;4970079;28;20799;-88
2024/02/11 03:35:53;;;;;;;0.60;0.60;;;;;;;;;;4971963;28;20022;-89
2024/02/11 03:38:38;;;;;;;2.28;0.88;;;;;;;;;;4972180;28;20035;-90
2024/02/11 03:41:23;;;;;;;0.93;0.60;;;;;;;;;;4972896;28;20033;-90
2024/02/11 03:44:11;;;;;;;0.80;0.73;;;;;;;;;;4966253;28;20086;-90
2024/02/11 03:46:56;;;;;;;0.52;0.52;;;;;;;;;;4952808;29;20066;-91
2024/02/11 03:49:42;;;;;;;1.08;0.75;;;;;;;;;;4973349;28;20037;-91
2024/02/11 03:52:27;;;;;;;0.55;0.55;;;;;;;;;;4971315;28;20027;-90
2024/02/11 03:55:12;;;;;;;0.55;0.50;;;;;;;;;;4973042;28;20127;-90
2024/02/11 03:58:02;;;;;;;3.60;0.82;;;;;;;;;;4986908;28;20027;-89
2024/02/11 04:00:48;;;;;;;;;;;;;;;;;;4987158;28;20054;-90
2024/02/11 04:03:33;;;;;;;1.27;0.50;;;;;;;;;;4957332;28;20822;-88
2024/02/11 04:06:22;;;;;;;0.68;0.52;;;;;;;;;;4965305;28;20061;-88
2024/02/11 04:09:09;;;;;;;0.52;0.52;;;;;;;;;;4956140;28;20457;-89
2024/02/11 04:11:57;;;;;;;0.40;0.40;;;;;;;;;;4968173;28;20038;-88
2024/02/11 04:14:42;;;;;;;2.58;0.50;;;;;;;;;;4970417;28;20110;-88
2024/02/11 04:17:28;;;;;;;0.50;0.50;;;;;;;;;;4951811;28;20023;-87
2024/02/11 04:20:23;;;;;;;0.40;0.40;;;;;;;;;;4968933;28;20027;-86
2024/02/11 04:23:11;;;;;;;0.40;0.40;;;;;;;;;;4943247;28;20027;-86
2024/02/11 04:25:56;;;;;;;1.17;0.60;;;;;;;;;;4945696;29;20027;-86
2024/02/11 04:28:42;;;;;;;0.52;0.50;;;;;;;;;;4964930;28;20031;-85
2024/02/11 04:31:28;;;;;;;1.95;0.50;;;;;;;;;;4964136;28;20077;-87
2024/02/11 04:34:14;;;;;;;1.08;0.45;;;;;;;;;;4984353;28;20062;-88
2024/02/11 04:37:12;;;;;;;0.77;0.40;;;;;;;;;;4988419;28;20050;-90
2024/02/11 04:39:57;;;;;;;0.40;0.40;;;;;;;;;;4937660;29;20125;-87
2024/02/11 04:42:43;;;;;;;0.40;0.40;;;;;;;;;;4904894;29;20081;-88
2024/02/11 04:45:28;;;;;;;1.05;0.40;;;;;;;;;;4915676;29;20684;-89
2024/02/11 04:48:19;;;;;;;0.40;0.40;;;;;;;;;;4901774;29;20487;-88
2024/02/11 04:51:08;;;;;;;0.40;0.40;;;;;;;;;;4894464;28;20415;-89
2024/02/11 04:53:53;;;;;;;0.60;0.60;;;;;;;;;;4971004;28;20374;-90
2024/02/11 04:56:38;;;;;;;0.88;0.77;;;;;;;;;;4968103;28;20054;-89
2024/02/11 04:59:25;;;;;;;1.88;0.85;;;;;;;;;;4960838;28;20022;-88
2024/02/11 05:02:11;;;;;;;1.77;0.80;;;;;;;;;;4948727;29;20026;-88
2024/02/11 05:04:56;;;;;;;1.23;0.70;;;;;;;;;;4967952;28;20038;-88
2024/02/11 05:07:43;;;;;;;1.75;0.85;;;;;;;;;;4963547;28;20027;-90
2024/02/11 05:10:34;;;;;;;2.47;0.70;;;;;;;;;;4965226;28;20067;-90
2024/02/11 05:13:20;;;;;;;1.45;0.73;;;;;;;;;;4970772;28;20053;-90
2024/02/11 05:16:05;;;;;;;0.70;0.70;;;;;;;;;;4969886;28;20098;-89
2024/02/11 05:18:54;;;;;;;0.50;0.50;;;;;;;;;;4965223;28;20031;-88
2024/02/11 05:21:40;;;;;;;1.42;0.80;;;;;;;;;;4962156;28;20489;-87
2024/02/11 05:24:25;;;;;;;0.50;0.50;;;;;;;;;;4974875;28;20448;-89
2024/02/11 05:27:12;;;;;;;0.57;0.57;;;;;;;;;;4973037;28;20030;-87
2024/02/11 05:29:58;;;;;;;1.00;0.50;;;;;;;;;;4971448;28;20037;-89
2024/02/11 05:32:45;;;;;;;0.60;0.60;;;;;;;;;;4970593;28;20047;-89
2024/02/11 05:36:04;;;;;;;0.95;0.50;;;;;;;;;;4948299;28;20090;-88
2024/02/11 05:38:50;;;;;;;0.43;0.43;;;;;;;;;;4958985;28;20027;-87
2024/02/11 05:41:35;;;;;;;0.50;0.50;;;;;;;;;;4987376;28;20068;-88
2024/02/11 05:44:21;;;;;;;0.40;0.40;;;;;;;;;;4998629;28;20034;-89
2024/02/11 05:47:07;;;;;;;0.40;0.40;;;;;;;;;;4984378;28;20038;-86
2024/02/11 05:49:52;;;;;;;0.40;0.40;;;;;;;;;;4990306;28;20029;-86
2024/02/11 05:52:39;;;;;;;0.55;0.50;;;;;;;;;;4994350;28;20044;-87
2024/02/11 05:55:24;;;;;;;0.55;0.55;;;;;;;;;;4994197;28;20018;-87
2024/02/11 05:58:09;;;;;;;0.60;0.60;;;;;;;;;;4993613;28;20061;-87
2024/02/11 06:00:57;;;;;;;0.57;0.57;;;;;;;;;;4992943;28;20497;-85
2024/02/11 06:03:42;;;;;;;0.70;0.70;;;;;;;;;;4992663;28;20026;-87
2024/02/11 06:06:28;;;;;;;0.60;0.60;;;;;;;;;;4966065;28;20482;-88
2024/02/11 06:09:13;;;;;;;0.50;0.50;;;;;;;;;;4967884;28;20031;-89
2024/02/11 06:11:58;;;;;;;0.52;0.50;;;;;;;;;;4962721;28;20136;-89
2024/02/11 06:14:44;;;;;;;0.70;0.70;;;;;;;;;;4994752;28;20041;-88
2024/02/11 06:17:31;;;;;;;0.93;0.90;;;;;;;;;;4956340;28;20119;-89
2024/02/11 06:20:18;;;;;;;2.00;0.60;;;;;;;;;;4955596;28;20130;-87
2024/02/11 06:23:05;;;;;;;0.60;0.60;;;;;;;;;;4957862;28;20022;-85
2024/02/11 06:25:57;;;;;;;0.50;0.50;;;;;;;;;;4972272;28;20100;-87
2024/02/11 06:28:42;;;;;;;1.85;0.60;;;;;;;;;;4994408;28;20022;-86
2024/02/11 06:31:28;;;;;;;0.50;0.50;;;;;;;;;;4955119;28;20110;-85
2024/02/11 06:34:13;;;;;;;0.70;0.70;;;;;;;;;;4954582;28;20268;-88
2024/02/11 06:36:58;;;;;;;1.42;0.68;;;;;;;;;;4978596;28;20041;-85
2024/02/11 06:39:44;;;;;;;0.63;0.63;;;;;;;;;;4983047;28;20113;-86
2024/02/11 06:42:30;;;;;;;1.50;0.60;;;;;;;;;;4968213;28;20038;-88
2024/02/11 06:45:17;;;;;;;0.95;0.82;;;;;;;;;;4976577;28;20061;-88
2024/02/11 06:48:03;;;;;;;0.70;0.60;;;;;;;;;;4982548;28;20030;-88
2024/02/11 06:50:48;;;;;;;0.60;0.60;;;;;;;;;;4961422;28;20050;-92
2024/02/11 06:53:34;;;;;;;1.48;0.70;;;;;;;;;;4958989;28;20031;-92
2024/02/11 06:56:24;;;;;;;0.73;0.70;;;;;;;;;;4982289;28;20061;-87
2024/02/11 06:59:10;;;;;;;1.45;0.80;;;;;;;;;;4993258;28;20042;-87
2024/02/11 07:01:56;;;;;;;0.77;0.77;;;;;;;;;;4994492;28;20034;-89
2024/02/11 07:04:44;;;;;;;2.03;0.82;;;;;;;;;;4980499;28;20035;-91
2024/02/11 07:07:30;;;;;;;1.35;0.90;;;;;;;;;;4991594;28;20496;-87
2024/02/11 07:10:15;;;;;;;1.10;0.70;;;;;;;;;;4954931;28;20023;-88
2024/02/11 07:13:03;;;;;;;1.85;0.70;;;;;;;;;;4975653;28;20057;-86
2024/02/11 07:15:48;;;;;;;2.67;1.00;;;;;;;;;;4981660;28;20030;-86
2024/02/11 07:18:36;;;;;;;1.05;0.95;;;;;;;;;;4993853;28;20125;-87
2024/02/11 07:21:22;;;;;;;1.00;0.90;;;;;;;;;;4988712;28;20108;-86
2024/02/11 07:24:07;;;;;;;1.33;1.10;;;;;;;;;;4981493;28;20056;-87
2024/02/11 07:26:53;;;;;;;1.15;0.80;;;;;;;;;;4991077;28;20029;-86
2024/02/11 07:29:38;;;;;;;1.88;1.10;;;;;;;;;;4991567;28;20037;-85
2024/02/11 07:32:23;;;;;;;1.25;1.10;;;;;;;;;;4986088;28;20069;-84
2024/02/11 07:35:08;;;;;;;0.98;0.85;;;;;;;;;;4992575;28;20036;-86
2024/02/11 07:37:54;;;;;;;1.08;0.98;;;;;;;;;;4993363;28;20112;-86
2024/02/11 07:40:40;;;;;;;2.28;1.55;;;;;;;;;;4983965;28;20034;-87
2024/02/11 07:43:25;;;;;;;3.42;2.05;;;;;;;;;;4989619;28;20037;-87
2024/02/11 07:46:13;;;;;;;3.03;1.60;;;;;;;;;;4991679;28;20030;-88
2024/02/11 07:49:03;;;;;;;1.40;1.20;;;;;;;;;;4992451;28;20084;-88
2024/02/11 07:51:49;;;;;;;3.22;1.65;;;;;;;;;;4994264;28;20033;-88
2024/02/11 07:54:34;;;;;;;2.63;1.67;;;;;;;;;;4994084;28;20316;-81
2024/02/11 07:57:19;;;;;;;2.17;1.65;;;;;;;;;;4988593;28;20092;-89
2024/02/11 08:00:07;;;;;;;2.95;1.95;;;;;;;;;;4985334;28;20049;-89
2024/02/11 08:02:53;;;;;;;3.65;1.83;;;;;;;;;;4995690;28;20114;-89
2024/02/11 08:05:38;;;;;;;5.10;2.47;;;;;;;;;;4998147;28;20045;-89
2024/02/11 08:08:24;;;;;;;2.47;1.73;;;;;;;;;;5000344;28;20113;-92
2024/02/11 08:11:34;;;;;;;5.13;2.28;;;;;;;;;;5003079;23;20026;-91
2024/02/11 08:17:50;;;;;;;4.88;2.60;;;;;;;;;;4923345;29;20055;-89
2024/02/11 08:20:35;;;;;;;4.35;2.47;;;;;;;;;;4899957;29;20118;-90
2024/02/11 08:23:24;;;;;;;4.97;2.90;;;;;;;;;;4986080;28;20080;-90
2024/02/11 08:26:50;;;;;;;5.47;2.97;;;;;;;;;;4981176;28;20030;-90
2024/02/11 08:29:57;;;;;;;5.10;2.72;;;;;;;;;;5003277;28;20033;-91
2024/02/11 08:33:29;;;;;;;4.75;3.22;;;;;;;;;;4985582;28;20038;-91
2024/02/11 08:39:26;;;;;;;11.82;3.25;;;;;;;;;;5016010;28;20021;-88
2024/02/11 08:42:15;;;;;;;6.80;3.67;;;;;;;;;;4997377;28;20117;-88
2024/02/11 08:45:07;;;;;;;5.95;3.13;;;;;;;;;;4997153;28;20537;-90
2024/02/11 08:47:53;;;;;;;9.00;3.33;;;;;;;;;;5003621;28;20574;-87
2024/02/11 08:50:39;;;;;;;7.40;3.72;;;;;;;;;;5001879;28;20041;-89
2024/02/11 08:53:24;;;;;;;6.72;3.45;;;;;;;;;;4997310;28;20017;-82
2024/02/11 08:56:12;;;;;;;5.15;3.33;;;;;;;;;;5006598;28;20044;-89
2024/02/11 08:58:58;;;;;;;7.45;4.05;;;;;;;;;;5003307;28;20476;-90
2024/02/11 09:01:55;;;;;;;7.55;3.40;;;;;;;;;;5008221;28;20033;-88
2024/02/11 09:04:42;;;;;;;9.88;3.97;;;;;;;;;;5007206;28;20029;-85
2024/02/11 14:54:13;;;;;;;3.33;1.20;;;;;;;;;;5235246;23;20048;-86
2024/02/11 14:56:58;;;;;;;3.42;1.52;;;;;;;;;;4944150;29;20050;-85
2024/02/11 14:59:45;;;;;;;2.83;1.58;;;;;;;;;;4926447;29;20672;-86
2024/02/11 15:02:33;;;;;;;2.30;1.35;;;;;;;;;;4918328;29;20071;-88
2024/02/11 15:05:18;;;;;;;1.10;1.00;;;;;;;;;;4913166;29;20098;-89
2024/02/11 15:08:32;;;;;;;1.45;1.13;;;;;;;;;;4923545;29;20078;-89
2024/02/11 15:11:21;;;;;;;1.85;1.15;;;;;;;;;;4903147;29;20032;-88
2024/02/11 15:14:07;;;;;;;3.25;1.40;;;;;;;;;;4902952;29;20027;-87
2024/02/11 15:16:52;;;;;;;2.65;1.40;;;;;;;;;;4917457;29;20063;-90
2024/02/11 15:19:39;;;;;;;2.00;1.02;;;;;;;;;;4903369;29;20039;-89
2024/02/11 15:22:24;;;;;;;2.10;1.13;;;;;;;;;;4920059;29;20035;-90
2024/02/11 15:25:10;;;;;;;2.35;1.10;;;;;;;;;;4932789;28;20372;-89
2024/02/11 15:27:56;;;;;;;1.42;1.10;;;;;;;;;;4916676;29;20030;-90
2024/02/11 15:30:41;;;;;;;1.42;1.00;;;;;;;;;;4902530;29;20024;-90
2024/02/11 15:33:29;;;;;;;1.35;1.20;;;;;;;;;;4924195;29;20126;-88
2024/02/11 15:36:14;;;;;;;1.38;1.08;;;;;;;;;;4941042;29;20038;-88
2024/02/11 15:39:01;;;;;;;1.40;1.00;;;;;;;;;;4930751;29;20039;-88
2024/02/11 15:41:46;;;;;;;2.83;1.20;;;;;;;;;;4916217;29;20491;-87
2024/02/11 15:44:32;;;;;;;6.88;1.73;;;;;;;;;;4940177;28;20032;-88
2024/02/11 15:47:19;;;;;;;2.92;1.20;;;;;;;;;;4929943;29;20090;-88
2024/02/11 15:50:05;;;;;;;3.35;1.30;;;;;;;;;;4930720;29;20027;-90
2024/02/11 15:52:56;;;;;;;1.77;1.20;;;;;;;;;;4933441;29;20079;-88
2024/02/11 15:55:44;;;;;;;3.17;1.17;;;;;;;;;;4926607;29;20445;-90
2024/02/11 15:58:29;;;;;;;2.35;1.05;;;;;;;;;;4928583;29;20086;-89
2024/02/11 16:01:16;;;;;;;3.92;1.40;;;;;;;;;;4941400;29;20027;-90
2024/02/11 16:04:04;;;;;;;1.85;1.10;;;;;;;;;;4948919;28;20050;-90
2024/02/11 16:06:49;;;;;;;5.22;1.50;;;;;;;;;;4948827;28;20123;-89
2024/02/11 16:09:41;;;;;;;1.67;1.10;;;;;;;;;;4934401;29;20454;-90
2024/02/11 16:12:28;;;;;;;0.85;0.80;;;;;;;;;;4916692;29;20067;-89
2024/02/11 16:15:17;;;;;;;1.00;0.90;;;;;;;;;;4914249;29;20031;-89
2024/02/11 16:18:04;;;;;;;2.97;1.38;;;;;;;;;;4931315;29;20311;-89
2024/02/11 16:20:52;;;;;;;2.35;1.10;;;;;;;;;;4916916;29;20026;-89
2024/02/11 16:23:38;;;;;;;2.15;1.38;;;;;;;;;;4917185;29;20063;-89
2024/02/11 16:26:24;;;;;;;2.33;1.58;;;;;;;;;;4933318;29;20070;-88
2024/02/11 16:29:10;;;;;;;3.92;1.42;;;;;;;;;;4931775;29;20034;-89
2024/02/11 16:31:58;;;;;;;7.20;2.42;;;;;;;;;;4922542;29;21120;-89
2024/02/11 16:34:44;;;;;;;4.35;1.98;;;;;;;;;;4917513;29;20086;-89
2024/02/11 16:37:29;;;;;;;4.35;2.10;;;;;;;;;;4918396;29;20086;-86
2024/02/11 16:40:18;;;;;;;2.70;1.75;;;;;;;;;;4932247;29;20051;-88
2024/02/11 16:43:04;;;;;;;5.60;2.47;;;;;;;;;;4918942;29;20040;-87
2024/02/11 16:45:49;;;;;;;3.67;1.95;;;;;;;;;;4931784;29;20039;-88
2024/02/11 16:48:35;;;;;;;6.63;2.58;;;;;;;;;;4940815;29;20023;-89
2024/02/11 16:51:22;;;;;;;6.78;2.80;;;;;;;;;;4899730;29;20107;-89
2024/02/11 16:54:07;;;;;;;5.85;2.17;;;;;;;;;;4948319;29;20039;-88
2024/02/11 16:56:55;;;;;;;3.45;1.60;;;;;;;;;;4933759;29;20123;-87
2024/02/11 16:59:50;;;;;;;2.90;1.50;;;;;;;;;;4933818;29;20016;-88
2024/02/11 17:03:01;;;;;;;3.67;1.80;;;;;;;;;;4928937;29;20031;-88
2024/02/11 17:09:23;;;;;;;4.00;1.50;;;;;;;;;;4937720;29;20024;-88
2024/02/11 17:12:21;;;;;;;3.90;1.67;;;;;;;;;;4905729;29;20468;-88
2024/02/11 17:15:32;;;;;;;2.78;1.88;;;;;;;;;;4911735;29;20468;-88
2024/02/11 17:18:39;;;;;;;3.38;1.50;;;;;;;;;;4881955;29;20038;-89
2024/02/11 17:22:03;;;;;;;2.40;1.52;;;;;;;;;;4918562;29;20036;-88
2024/02/11 17:24:53;;;;;;;3.38;1.70;;;;;;;;;;4914841;29;20043;-86
2024/02/11 17:27:39;;;;;;;5.00;2.20;;;;;;;;;;4895637;29;20514;-86
2024/02/11 17:30:34;;;;;;;;;;;;;;;;;;;;;
2024/02/11 17:33:45;;;;;;;10.38;2.70;;;;;;;;;;4919238;29;20028;-90
2024/02/11 17:36:30;;;;;;;5.97;2.25;;;;;;;;;;4933177;28;20034;-85
2024/02/11 17:39:16;;;;;;;6.10;1.98;;;;;;;;;;4929354;29;20019;-89
2024/02/11 17:42:27;;;;;;;7.03;3.05;;;;;;;;;;4933094;29;20046;-86
2024/02/11 17:45:12;;;;;;;9.45;2.65;;;;;;;;;;4952030;28;20537;-87
2024/02/11 17:48:04;;;;;;;5.60;2.67;;;;;;;;;;4913590;29;20482;-84
2024/02/11 17:50:51;;;;;;;8.90;3.35;;;;;;;;;;4935330;29;20015;-85
2024/02/11 17:53:38;;;;;;;8.02;3.47;;;;;;;;;;4919772;29;20051;-85
2024/02/11 17:56:23;;;;;;;5.70;3.13;;;;;;;;;;4918048;29;20023;-86
2024/02/11 17:59:12;;;;;;;8.00;3.22;;;;;;;;;;4930122;29;20038;-87
2024/02/11 18:02:00;;;;;;;4.60;2.08;;;;;;;;;;4918466;29;20144;-87
2024/02/11 18:04:47;;;;;;;2.40;1.55;;;;;;;;;;4931831;29;20028;-88
2024/02/11 18:07:38;;;;;;;3.47;2.13;;;;;;;;;;4943659;29;20027;-87
2024/02/11 18:10:28;;;;;;;4.55;1.90;;;;;;;;;;4938908;29;20065;-88
2024/02/11 18:13:13;;;;;;;5.30;2.17;;;;;;;;;;4928148;29;20266;-85
2024/02/11 18:16:01;;;;;;;4.45;1.80;;;;;;;;;;4918858;29;20029;-87
2024/02/11 18:18:48;;;;;;;4.80;2.30;;;;;;;;;;4941458;29;20023;-88
2024/02/11 18:21:34;;;;;;;6.40;2.72;;;;;;;;;;4933729;29;20020;-86
2024/02/11 18:24:19;;;;;;;9.90;3.10;;;;;;;;;;4924511;29;20039;-86
2024/02/11 18:27:15;;;;;;;5.35;2.30;;;;;;;;;;4932448;29;20111;-87
2024/02/11 18:30:03;;;;;;;3.22;2.00;;;;;;;;;;4935279;29;20026;-88
2024/02/11 18:32:48;;;;;;;7.07;2.13;;;;;;;;;;4919739;29;20386;-85
2024/02/11 18:35:35;;;;;;;4.65;1.98;;;;;;;;;;4946428;28;20027;-86
2024/02/11 18:38:22;;;;;;;6.93;2.40;;;;;;;;;;4917299;29;20027;-86
2024/02/11 18:41:08;;;;;;;6.97;3.80;;;;;;;;;;4920688;29;20027;-86
2024/02/11 18:43:55;;;;;;;7.65;3.40;;;;;;;;;;4924243;29;20032;-86
2024/02/11 18:46:46;;;;;;;9.05;3.42;;;;;;;;;;4926863;29;20205;-86
2024/02/11 18:49:33;;;;;;;6.88;3.40;;;;;;;;;;4926545;29;20085;-87
2024/02/11 18:52:19;;;;;;;6.78;2.97;;;;;;;;;;4901584;29;20024;-85
2024/02/11 18:55:05;;;;;;;5.70;2.35;;;;;;;;;;4930404;29;20085;-85
2024/02/11 18:57:51;;;;;;;5.55;2.60;;;;;;;;;;4922463;29;20028;-86
2024/02/11 19:00:36;;;;;;;6.35;2.30;;;;;;;;;;4940369;29;20030;-85
2024/02/11 19:03:21;;;;;;;5.78;2.13;;;;;;;;;;4917263;29;20031;-82
2024/02/11 19:06:07;;;;;;;4.70;1.90;;;;;;;;;;4925133;29;20042;-84
2024/02/11 19:08:52;;;;;;;2.70;1.55;;;;;;;;;;4932221;29;20052;-83
2024/02/11 19:11:37;;;;;;;6.82;2.10;;;;;;;;;;4935655;29;20032;-84
2024/02/11 19:14:23;;;;;;;4.68;2.35;;;;;;;;;;4934154;29;20387;-86
2024/02/11 19:17:10;;;;;;;7.40;3.40;;;;;;;;;;4913555;29;20015;-84
2024/02/11 19:19:56;;;;;;;16.95;7.32;;;;;;;;;;4916949;29;20050;-83
2024/02/11 19:22:41;;;;;;;15.88;6.60;;;;;;;;;;4918615;29;20030;-84
2024/02/11 19:25:26;;;;;;;8.50;3.50;;;;;;;;;;4934013;29;20109;-84
2024/02/11 19:28:12;;;;;;;6.00;2.97;;;;;;;;;;4935777;29;20023;-88
2024/02/11 19:30:58;;;;;;;6.53;2.72;;;;;;;;;;4936834;28;20112;-88
2024/02/11 19:33:43;;;;;;;3.58;2.13;;;;;;;;;;4940803;29;20302;-88
2024/02/11 19:36:28;;;;;;;5.00;2.70;;;;;;;;;;4942320;28;20327;-87
2024/02/11 19:39:14;;;;;;;5.10;2.53;;;;;;;;;;4936238;28;20119;-86
2024/02/11 19:42:00;;;;;;;4.13;2.00;;;;;;;;;;4934607;29;20123;-86
2024/02/11 19:44:45;;;;;;;3.90;2.03;;;;;;;;;;4915520;29;20394;-85
2024/02/11 19:47:31;;;;;;;4.97;2.50;;;;;;;;;;4924054;29;20032;-86
2024/02/11 19:50:16;;;;;;;4.63;2.10;;;;;;;;;;4927219;29;20030;-86
2024/02/11 19:53:02;;;;;;;3.60;1.92;;;;;;;;;;4925296;29;20052;-87
2024/02/11 19:55:47;;;;;;;5.93;1.60;;;;;;;;;;4924931;29;20042;-87
2024/02/11 19:58:33;;;;;;;7.32;2.00;;;;;;;;;;4929100;29;20077;-86
2024/02/11 20:01:19;;;;;;;5.85;2.22;;;;;;;;;;4919658;29;20027;-85
2024/02/11 20:04:04;;;;;;;2.90;1.70;;;;;;;;;;4918490;29;20027;-88
2024/02/11 20:06:50;;;;;;;6.72;2.25;;;;;;;;;;4916350;29;20063;-86
2024/02/11 20:09:38;;;;;;;5.10;2.10;;;;;;;;;;4930097;29;20027;-87
2024/02/11 20:12:23;;;;;;;5.75;1.98;;;;;;;;;;4921899;29;20062;-87
2024/02/11 20:15:12;;;;;;;6.10;1.85;;;;;;;;;;4911347;29;20372;-85
2024/02/11 20:17:58;;;;;;;4.15;1.70;;;;;;;;;;4910470;29;20020;-85
2024/02/11 20:20:49;;;;;;;2.40;1.63;;;;;;;;;;4932261;29;20039;-87
2024/02/11 20:23:34;;;;;;;5.80;2.20;;;;;;;;;;4936397;28;20714;-85
2024/02/11 20:26:20;;;;;;;3.72;1.90;;;;;;;;;;4916728;29;20032;-86
2024/02/11 20:29:07;;;;;;;5.90;1.90;;;;;;;;;;4922427;29;20024;-88
2024/02/11 20:31:56;;;;;;;3.00;2.03;;;;;;;;;;4937536;29;20031;-83
2024/02/11 20:34:41;;;;;;;3.67;1.92;;;;;;;;;;4934847;28;20035;-86
2024/02/11 20:37:27;;;;;;;10.88;3.25;;;;;;;;;;4930783;29;20042;-85
2024/02/11 20:40:15;;;;;;;5.35;2.47;;;;;;;;;;4905306;29;20043;-84
2024/02/11 20:43:00;;;;;;;5.18;2.78;;;;;;;;;;4951001;29;20016;-87
2024/02/11 20:45:45;;;;;;;5.47;2.30;;;;;;;;;;4948485;29;20155;-86
2024/02/11 20:48:31;;;;;;;7.72;2.53;;;;;;;;;;4951402;29;20012;-86
2024/02/11 20:51:18;;;;;;;7.00;2.50;;;;;;;;;;4947401;29;20032;-85
2024/02/11 20:54:04;;;;;;;6.00;2.72;;;;;;;;;;4954936;29;20023;-86
2024/02/11 20:56:48;;;;;;;3.78;1.98;;;;;;;;;;4947769;29;20167;-85
2024/02/11 20:59:35;;;;;;;2.47;1.90;;;;;;;;;;4947759;29;20034;-85
2024/02/11 21:02:29;;;;;;;3.42;1.35;;;;;;;;;;4939407;29;20087;-85
2024/02/11 21:05:16;;;;;;;4.32;2.30;;;;;;;;;;4950776;29;20020;-86
2024/02/11 21:08:03;;;;;;;7.07;2.60;;;;;;;;;;4954149;29;20028;-85
2024/02/11 21:10:48;;;;;;;8.93;3.80;;;;;;;;;;4934923;29;20039;-88
2024/02/11 21:13:39;;;;;;;8.15;3.40;;;;;;;;;;4922825;29;20119;-87
2024/02/11 21:16:24;;;;;;;5.35;3.30;;;;;;;;;;4940860;29;20031;-84
2024/02/11 21:19:12;;;;;;;5.65;2.75;;;;;;;;;;4919017;29;20121;-86
2024/02/11 21:21:57;;;;;;;4.88;2.30;;;;;;;;;;4899293;29;20028;-85
2024/02/11 21:24:46;;;;;;;3.65;2.03;;;;;;;;;;4909441;29;20067;-85
2024/02/11 21:27:31;;;;;;;5.10;2.45;;;;;;;;;;4928727;29;20035;-87
2024/02/11 21:30:17;;;;;;;6.25;3.53;;;;;;;;;;4928584;29;20083;-88
2024/02/11 21:33:05;;;;;;;13.55;7.15;;;;;;;;;;4919910;29;20391;-87
2024/02/11 21:35:51;;;;;;;5.55;3.53;;;;;;;;;;4934885;29;20027;-86
2024/02/11 21:38:37;;;;;;;10.23;3.70;;;;;;;;;;4903625;29;20024;-87
2024/02/11 21:41:22;;;;;;;4.40;2.40;;;;;;;;;;4928877;29;20138;-84
2024/02/11 21:44:08;;;;;;;3.55;2.10;;;;;;;;;;4922523;29;20360;-86
2024/02/11 21:46:54;;;;;;;3.33;1.70;;;;;;;;;;4920238;29;20096;-88
2024/02/11 21:49:39;;;;;;;8.50;3.55;;;;;;;;;;4944944;29;20118;-90
2024/02/11 21:52:26;;;;;;;10.07;4.43;;;;;;;;;;4935025;28;20028;-92
2024/02/11 21:55:12;;;;;;;9.43;3.40;;;;;;;;;;4933368;29;20046;-88
2024/02/11 21:57:58;;;;;;;5.55;3.10;;;;;;;;;;4937674;29;20024;-91
2024/02/11 22:00:49;;;;;;;9.07;2.80;;;;;;;;;;4942891;28;20031;-90
2024/02/11 22:03:34;;;;;;;5.10;2.40;;;;;;;;;;4918790;29;20669;-90
2024/02/11 22:06:19;;;;;;;7.63;3.00;;;;;;;;;;4930500;29;20031;-89
2024/02/11 22:09:05;;;;;;;4.88;2.60;;;;;;;;;;4937829;29;20777;-89
2024/02/11 22:11:51;;;;;;;6.68;3.03;;;;;;;;;;4938173;29;20028;-90
2024/02/11 22:14:38;;;;;;;6.68;2.08;;;;;;;;;;4945840;29;20095;-90
2024/02/11 22:17:23;;;;;;;5.32;2.17;;;;;;;;;;4945215;29;20038;-88
2024/02/11 22:20:09;;;;;;;3.53;1.80;;;;;;;;;;4934910;28;20047;-87
